Lugerville, Wisconsin
Current Conditions -  °F | °C
As of 1:15 AM on Friday 31 Oct 2014 (Local Time) from KPBH Reporting Station
Overcast Overcast  
Wind Chill: 20°   Ceiling: 1400
Heat Index: 29°   Visibility: 10mi
Dew Point: 26°   Wind: 10mph
Humidity: 86%   Direction: 340°NNW
Pressure: 30.19"   Gusts: 23mph
Location:  45.7439°N, 90.2959°W
Report Text: KPBH 310615Z AUTO 34009G20KT 10SM OVC014 M01/M03 A3019 RMK AO2 T10151035
Loading
Personal Weather Stations






























Interactive Weather Map
Tropical Storm Tracking
New forecast layout! Learn more

10-Day Weather Forecast

Advertisements
Track Severe Weather on mobile